sensor_id;sensor_type;location;lat;lon;timestamp;P1;durP1;ratioP1;P2;durP2;ratioP2
830;SDS011;397;50.564;7.272;2022-07-23T00:01:14;14.40;;;13.10;;
830;SDS011;397;50.564;7.272;2022-07-23T00:03:39;15.57;;;14.03;;
830;SDS011;397;50.564;7.272;2022-07-23T00:06:05;15.63;;;14.20;;
830;SDS011;397;50.564;7.272;2022-07-23T00:08:31;16.30;;;14.90;;
830;SDS011;397;50.564;7.272;2022-07-23T00:10:57;15.03;;;13.53;;
830;SDS011;397;50.564;7.272;2022-07-23T00:13:23;16.60;;;15.03;;
830;SDS011;397;50.564;7.272;2022-07-23T00:15:48;15.90;;;14.30;;
830;SDS011;397;50.564;7.272;2022-07-23T00:18:14;15.80;;;14.27;;
830;SDS011;397;50.564;7.272;2022-07-23T00:20:40;15.97;;;14.47;;
830;SDS011;397;50.564;7.272;2022-07-23T00:23:05;15.37;;;13.83;;
830;SDS011;397;50.564;7.272;2022-07-23T00:25:31;15.13;;;13.73;;
830;SDS011;397;50.564;7.272;2022-07-23T00:27:57;15.80;;;14.23;;
830;SDS011;397;50.564;7.272;2022-07-23T00:30:24;15.37;;;13.90;;
830;SDS011;397;50.564;7.272;2022-07-23T00:35:37;15.80;;;14.30;;
830;SDS011;397;50.564;7.272;2022-07-23T00:38:06;15.33;;;13.73;;
830;SDS011;397;50.564;7.272;2022-07-23T00:40:34;16.17;;;14.60;;
830;SDS011;397;50.564;7.272;2022-07-23T00:43:01;13.83;;;12.53;;
830;SDS011;397;50.564;7.272;2022-07-23T00:45:28;15.83;;;14.20;;
830;SDS011;397;50.564;7.272;2022-07-23T00:47:54;14.57;;;13.30;;
830;SDS011;397;50.564;7.272;2022-07-23T00:50:20;15.40;;;14.00;;
830;SDS011;397;50.564;7.272;2022-07-23T00:52:47;15.50;;;14.13;;
830;SDS011;397;50.564;7.272;2022-07-23T00:55:14;15.60;;;14.23;;
830;SDS011;397;50.564;7.272;2022-07-23T00:57:40;14.77;;;13.47;;
830;SDS011;397;50.564;7.272;2022-07-23T01:00:08;14.63;;;13.23;;
830;SDS011;397;50.564;7.272;2022-07-23T01:02:36;16.10;;;14.13;;
830;SDS011;397;50.564;7.272;2022-07-23T01:05:03;15.43;;;14.13;;
830;SDS011;397;50.564;7.272;2022-07-23T01:07:29;15.73;;;14.20;;
830;SDS011;397;50.564;7.272;2022-07-23T01:09:55;15.63;;;14.23;;
830;SDS011;397;50.564;7.272;2022-07-23T01:12:21;16.70;;;14.40;;
830;SDS011;397;50.564;7.272;2022-07-23T01:14:53;18.13;;;16.40;;
830;SDS011;397;50.564;7.272;2022-07-23T01:17:23;18.37;;;16.57;;
830;SDS011;397;50.564;7.272;2022-07-23T01:19:49;17.93;;;16.23;;
830;SDS011;397;50.564;7.272;2022-07-23T01:22:15;17.27;;;15.60;;
830;SDS011;397;50.564;7.272;2022-07-23T01:24:43;19.40;;;14.23;;
830;SDS011;397;50.564;7.272;2022-07-23T01:27:09;16.97;;;15.37;;
830;SDS011;397;50.564;7.272;2022-07-23T01:29:35;17.00;;;15.20;;
830;SDS011;397;50.564;7.272;2022-07-23T01:32:01;15.73;;;14.23;;
830;SDS011;397;50.564;7.272;2022-07-23T01:34:26;16.23;;;14.57;;
830;SDS011;397;50.564;7.272;2022-07-23T01:36:52;17.00;;;15.47;;
830;SDS011;397;50.564;7.272;2022-07-23T01:39:18;16.40;;;14.97;;
830;SDS011;397;50.564;7.272;2022-07-23T01:41:43;15.87;;;14.33;;
830;SDS011;397;50.564;7.272;2022-07-23T01:44:09;16.00;;;14.70;;
830;SDS011;397;50.564;7.272;2022-07-23T01:46:35;16.53;;;14.87;;
830;SDS011;397;50.564;7.272;2022-07-23T01:49:00;18.57;;;16.93;;
830;SDS011;397;50.564;7.272;2022-07-23T01:51:26;16.47;;;14.87;;
830;SDS011;397;50.564;7.272;2022-07-23T01:53:52;16.07;;;14.63;;
830;SDS011;397;50.564;7.272;2022-07-23T01:56:18;14.80;;;13.53;;
830;SDS011;397;50.564;7.272;2022-07-23T01:58:45;17.70;;;15.90;;
830;SDS011;397;50.564;7.272;2022-07-23T02:01:11;18.93;;;16.00;;
830;SDS011;397;50.564;7.272;2022-07-23T02:03:37;16.80;;;15.30;;
830;SDS011;397;50.564;7.272;2022-07-23T02:06:03;17.40;;;15.70;;
830;SDS011;397;50.564;7.272;2022-07-23T02:08:29;18.23;;;15.47;;
830;SDS011;397;50.564;7.272;2022-07-23T02:10:54;17.27;;;15.63;;
830;SDS011;397;50.564;7.272;2022-07-23T02:13:20;16.73;;;15.10;;
830;SDS011;397;50.564;7.272;2022-07-23T02:15:46;17.90;;;16.30;;
830;SDS011;397;50.564;7.272;2022-07-23T02:18:12;17.47;;;15.83;;
830;SDS011;397;50.564;7.272;2022-07-23T02:20:38;18.37;;;16.57;;
830;SDS011;397;50.564;7.272;2022-07-23T02:25:50;19.00;;;17.30;;
830;SDS011;397;50.564;7.272;2022-07-23T02:28:16;19.03;;;17.23;;
830;SDS011;397;50.564;7.272;2022-07-23T02:30:42;18.20;;;16.50;;
830;SDS011;397;50.564;7.272;2022-07-23T02:33:08;18.47;;;16.87;;
830;SDS011;397;50.564;7.272;2022-07-23T02:35:34;19.80;;;17.80;;
830;SDS011;397;50.564;7.272;2022-07-23T02:37:59;19.30;;;17.50;;
830;SDS011;397;50.564;7.272;2022-07-23T02:40:25;19.07;;;17.37;;
830;SDS011;397;50.564;7.272;2022-07-23T02:42:51;19.33;;;17.53;;
830;SDS011;397;50.564;7.272;2022-07-23T02:45:17;19.97;;;18.17;;
830;SDS011;397;50.564;7.272;2022-07-23T02:47:42;19.97;;;17.53;;
830;SDS011;397;50.564;7.272;2022-07-23T02:50:08;17.60;;;16.00;;
830;SDS011;397;50.564;7.272;2022-07-23T02:52:34;20.87;;;17.77;;
830;SDS011;397;50.564;7.272;2022-07-23T02:55:00;19.17;;;17.43;;
830;SDS011;397;50.564;7.272;2022-07-23T02:57:25;22.73;;;18.77;;
830;SDS011;397;50.564;7.272;2022-07-23T02:59:51;19.83;;;18.00;;
830;SDS011;397;50.564;7.272;2022-07-23T03:02:17;21.37;;;19.20;;
830;SDS011;397;50.564;7.272;2022-07-23T03:04:43;21.00;;;18.90;;
830;SDS011;397;50.564;7.272;2022-07-23T03:07:08;19.03;;;17.23;;
830;SDS011;397;50.564;7.272;2022-07-23T03:09:34;21.63;;;19.57;;
830;SDS011;397;50.564;7.272;2022-07-23T03:12:00;19.53;;;17.50;;
830;SDS011;397;50.564;7.272;2022-07-23T03:14:25;20.20;;;18.30;;
830;SDS011;397;50.564;7.272;2022-07-23T03:16:53;21.00;;;18.90;;
830;SDS011;397;50.564;7.272;2022-07-23T03:19:19;20.60;;;18.90;;
830;SDS011;397;50.564;7.272;2022-07-23T03:21:45;20.50;;;18.40;;
830;SDS011;397;50.564;7.272;2022-07-23T03:24:11;19.80;;;18.00;;
830;SDS011;397;50.564;7.272;2022-07-23T03:26:37;19.47;;;17.57;;
830;SDS011;397;50.564;7.272;2022-07-23T03:29:03;20.00;;;18.20;;
830;SDS011;397;50.564;7.272;2022-07-23T03:31:29;21.30;;;19.10;;
830;SDS011;397;50.564;7.272;2022-07-23T03:33:56;21.73;;;19.63;;
830;SDS011;397;50.564;7.272;2022-07-23T03:36:22;19.63;;;17.73;;
830;SDS011;397;50.564;7.272;2022-07-23T03:38:48;20.77;;;18.73;;
830;SDS011;397;50.564;7.272;2022-07-23T03:41:14;19.20;;;17.30;;
830;SDS011;397;50.564;7.272;2022-07-23T03:43:39;21.43;;;19.37;;
830;SDS011;397;50.564;7.272;2022-07-23T03:46:05;21.80;;;18.93;;
830;SDS011;397;50.564;7.272;2022-07-23T03:48:31;21.10;;;18.90;;
830;SDS011;397;50.564;7.272;2022-07-23T03:50:57;20.90;;;18.90;;
830;SDS011;397;50.564;7.272;2022-07-23T03:53:22;21.10;;;19.00;;
830;SDS011;397;50.564;7.272;2022-07-23T03:55:48;18.50;;;16.80;;
830;SDS011;397;50.564;7.272;2022-07-23T03:58:14;21.73;;;19.40;;
830;SDS011;397;50.564;7.272;2022-07-23T04:00:40;18.07;;;16.53;;
830;SDS011;397;50.564;7.272;2022-07-23T04:03:05;19.20;;;17.50;;
830;SDS011;397;50.564;7.272;2022-07-23T04:05:31;21.70;;;19.90;;
830;SDS011;397;50.564;7.272;2022-07-23T04:07:57;17.60;;;15.90;;
830;SDS011;397;50.564;7.272;2022-07-23T04:10:22;15.57;;;14.07;;
830;SDS011;397;50.564;7.272;2022-07-23T04:12:48;17.23;;;15.73;;
830;SDS011;397;50.564;7.272;2022-07-23T04:15:14;18.80;;;16.80;;
830;SDS011;397;50.564;7.272;2022-07-23T04:17:40;19.33;;;17.20;;
830;SDS011;397;50.564;7.272;2022-07-23T04:20:05;18.20;;;16.50;;
830;SDS011;397;50.564;7.272;2022-07-23T04:22:32;16.40;;;14.70;;
830;SDS011;397;50.564;7.272;2022-07-23T04:24:58;15.80;;;14.23;;
830;SDS011;397;50.564;7.272;2022-07-23T04:27:23;17.47;;;15.67;;
830;SDS011;397;50.564;7.272;2022-07-23T04:29:49;16.87;;;15.33;;
830;SDS011;397;50.564;7.272;2022-07-23T04:32:15;16.63;;;15.00;;
830;SDS011;397;50.564;7.272;2022-07-23T04:34:41;16.57;;;14.90;;
830;SDS011;397;50.564;7.272;2022-07-23T04:37:06;18.30;;;16.53;;
830;SDS011;397;50.564;7.272;2022-07-23T04:39:32;18.10;;;16.50;;
830;SDS011;397;50.564;7.272;2022-07-23T04:41:58;17.00;;;15.40;;
830;SDS011;397;50.564;7.272;2022-07-23T04:44:24;16.43;;;15.03;;
830;SDS011;397;50.564;7.272;2022-07-23T04:46:50;17.43;;;15.93;;
830;SDS011;397;50.564;7.272;2022-07-23T04:49:16;15.03;;;13.83;;
830;SDS011;397;50.564;7.272;2022-07-23T04:51:41;18.33;;;16.53;;
830;SDS011;397;50.564;7.272;2022-07-23T04:54:07;15.30;;;14.00;;
830;SDS011;397;50.564;7.272;2022-07-23T04:56:33;16.00;;;14.30;;
830;SDS011;397;50.564;7.272;2022-07-23T04:58:58;16.80;;;15.30;;
830;SDS011;397;50.564;7.272;2022-07-23T05:01:24;16.33;;;14.90;;
830;SDS011;397;50.564;7.272;2022-07-23T05:03:50;16.83;;;15.13;;
830;SDS011;397;50.564;7.272;2022-07-23T05:06:15;16.97;;;14.83;;
830;SDS011;397;50.564;7.272;2022-07-23T05:08:41;17.67;;;16.07;;
830;SDS011;397;50.564;7.272;2022-07-23T05:11:07;18.20;;;16.50;;
830;SDS011;397;50.564;7.272;2022-07-23T05:13:33;20.07;;;17.90;;
830;SDS011;397;50.564;7.272;2022-07-23T05:15:59;20.33;;;18.47;;
830;SDS011;397;50.564;7.272;2022-07-23T05:18:24;17.67;;;16.07;;
830;SDS011;397;50.564;7.272;2022-07-23T05:20:50;17.73;;;15.87;;
830;SDS011;397;50.564;7.272;2022-07-23T05:23:16;18.53;;;16.93;;
830;SDS011;397;50.564;7.272;2022-07-23T05:25:42;18.40;;;16.90;;
830;SDS011;397;50.564;7.272;2022-07-23T05:28:08;18.97;;;16.07;;
830;SDS011;397;50.564;7.272;2022-07-23T05:30:33;19.37;;;17.70;;
830;SDS011;397;50.564;7.272;2022-07-23T05:32:59;18.10;;;16.40;;
830;SDS011;397;50.564;7.272;2022-07-23T05:35:25;18.63;;;16.93;;
830;SDS011;397;50.564;7.272;2022-07-23T05:37:51;18.53;;;16.83;;
830;SDS011;397;50.564;7.272;2022-07-23T05:40:18;20.50;;;17.40;;
830;SDS011;397;50.564;7.272;2022-07-23T05:42:44;17.60;;;16.00;;
830;SDS011;397;50.564;7.272;2022-07-23T05:45:09;19.50;;;17.77;;
830;SDS011;397;50.564;7.272;2022-07-23T05:47:39;19.63;;;17.70;;
830;SDS011;397;50.564;7.272;2022-07-23T05:50:06;18.33;;;16.63;;
830;SDS011;397;50.564;7.272;2022-07-23T05:52:32;17.23;;;15.63;;
830;SDS011;397;50.564;7.272;2022-07-23T05:54:57;17.63;;;15.70;;
830;SDS011;397;50.564;7.272;2022-07-23T05:57:23;20.97;;;17.50;;
830;SDS011;397;50.564;7.272;2022-07-23T05:59:49;16.90;;;15.10;;
830;SDS011;397;50.564;7.272;2022-07-23T06:02:14;18.07;;;16.17;;
830;SDS011;397;50.564;7.272;2022-07-23T06:04:40;19.30;;;17.40;;
830;SDS011;397;50.564;7.272;2022-07-23T06:07:07;16.23;;;14.53;;
830;SDS011;397;50.564;7.272;2022-07-23T06:09:33;18.27;;;16.37;;
830;SDS011;397;50.564;7.272;2022-07-23T06:11:58;18.07;;;16.43;;
830;SDS011;397;50.564;7.272;2022-07-23T06:14:24;16.57;;;14.80;;
830;SDS011;397;50.564;7.272;2022-07-23T06:16:50;16.27;;;14.60;;
830;SDS011;397;50.564;7.272;2022-07-23T06:19:15;14.77;;;13.07;;
830;SDS011;397;50.564;7.272;2022-07-23T06:21:41;15.40;;;13.73;;
830;SDS011;397;50.564;7.272;2022-07-23T06:24:07;15.20;;;13.40;;
830;SDS011;397;50.564;7.272;2022-07-23T06:26:33;15.20;;;12.77;;
830;SDS011;397;50.564;7.272;2022-07-23T06:28:58;13.87;;;12.47;;
830;SDS011;397;50.564;7.272;2022-07-23T06:31:25;12.97;;;11.70;;
830;SDS011;397;50.564;7.272;2022-07-23T06:33:51;14.33;;;13.00;;
830;SDS011;397;50.564;7.272;2022-07-23T06:36:16;15.20;;;13.80;;
830;SDS011;397;50.564;7.272;2022-07-23T06:38:42;13.03;;;11.77;;
830;SDS011;397;50.564;7.272;2022-07-23T06:41:08;13.07;;;11.80;;
830;SDS011;397;50.564;7.272;2022-07-23T06:43:34;14.77;;;13.27;;
830;SDS011;397;50.564;7.272;2022-07-23T06:45:59;12.80;;;11.60;;
830;SDS011;397;50.564;7.272;2022-07-23T06:48:25;14.27;;;12.93;;
830;SDS011;397;50.564;7.272;2022-07-23T06:50:51;14.43;;;13.17;;
830;SDS011;397;50.564;7.272;2022-07-23T06:53:18;15.50;;;13.90;;
830;SDS011;397;50.564;7.272;2022-07-23T06:55:43;13.77;;;12.47;;
830;SDS011;397;50.564;7.272;2022-07-23T06:58:09;15.40;;;13.80;;
830;SDS011;397;50.564;7.272;2022-07-23T07:00:35;13.70;;;12.50;;
830;SDS011;397;50.564;7.272;2022-07-23T07:03:01;16.40;;;14.50;;
830;SDS011;397;50.564;7.272;2022-07-23T07:05:27;14.60;;;13.30;;
830;SDS011;397;50.564;7.272;2022-07-23T07:07:54;15.33;;;13.20;;
830;SDS011;397;50.564;7.272;2022-07-23T07:10:20;12.10;;;10.93;;
830;SDS011;397;50.564;7.272;2022-07-23T07:12:46;12.60;;;11.53;;
830;SDS011;397;50.564;7.272;2022-07-23T07:15:12;13.10;;;11.90;;
830;SDS011;397;50.564;7.272;2022-07-23T07:17:38;16.57;;;12.83;;
830;SDS011;397;50.564;7.272;2022-07-23T07:20:05;15.13;;;12.30;;
830;SDS011;397;50.564;7.272;2022-07-23T07:22:32;13.53;;;11.67;;
830;SDS011;397;50.564;7.272;2022-07-23T07:24:58;12.90;;;11.20;;
830;SDS011;397;50.564;7.272;2022-07-23T07:27:23;13.00;;;11.70;;
830;SDS011;397;50.564;7.272;2022-07-23T07:29:49;12.20;;;10.93;;
830;SDS011;397;50.564;7.272;2022-07-23T07:32:15;12.60;;;11.30;;
830;SDS011;397;50.564;7.272;2022-07-23T07:34:40;13.53;;;12.23;;
830;SDS011;397;50.564;7.272;2022-07-23T07:37:06;15.40;;;10.50;;
830;SDS011;397;50.564;7.272;2022-07-23T07:39:32;12.67;;;11.43;;
830;SDS011;397;50.564;7.272;2022-07-23T07:41:58;13.77;;;12.47;;
830;SDS011;397;50.564;7.272;2022-07-23T07:44:23;11.97;;;10.77;;
830;SDS011;397;50.564;7.272;2022-07-23T07:46:49;14.00;;;11.77;;
830;SDS011;397;50.564;7.272;2022-07-23T07:49:15;12.67;;;11.33;;
830;SDS011;397;50.564;7.272;2022-07-23T07:51:43;12.97;;;10.97;;
830;SDS011;397;50.564;7.272;2022-07-23T07:54:09;13.60;;;12.20;;
830;SDS011;397;50.564;7.272;2022-07-23T07:56:34;12.73;;;11.33;;
830;SDS011;397;50.564;7.272;2022-07-23T07:59:00;13.20;;;11.90;;
830;SDS011;397;50.564;7.272;2022-07-23T08:01:26;13.07;;;10.63;;
830;SDS011;397;50.564;7.272;2022-07-23T08:03:52;10.80;;;9.70;;
830;SDS011;397;50.564;7.272;2022-07-23T08:06:17;9.70;;;8.70;;
830;SDS011;397;50.564;7.272;2022-07-23T08:08:43;11.20;;;9.00;;
830;SDS011;397;50.564;7.272;2022-07-23T08:11:09;10.10;;;8.20;;
830;SDS011;397;50.564;7.272;2022-07-23T08:13:35;8.90;;;7.67;;
830;SDS011;397;50.564;7.272;2022-07-23T08:16:00;7.40;;;6.70;;
830;SDS011;397;50.564;7.272;2022-07-23T08:18:26;6.33;;;5.73;;
830;SDS011;397;50.564;7.272;2022-07-23T08:20:52;6.53;;;5.70;;
830;SDS011;397;50.564;7.272;2022-07-23T08:23:18;8.50;;;6.90;;
830;SDS011;397;50.564;7.272;2022-07-23T08:25:45;7.80;;;5.40;;
830;SDS011;397;50.564;7.272;2022-07-23T08:28:13;7.67;;;6.80;;
830;SDS011;397;50.564;7.272;2022-07-23T08:30:40;6.47;;;5.60;;
830;SDS011;397;50.564;7.272;2022-07-23T08:33:16;7.50;;;5.90;;
830;SDS011;397;50.564;7.272;2022-07-23T08:35:40;7.90;;;6.37;;
830;SDS011;397;50.564;7.272;2022-07-23T08:38:11;7.73;;;6.90;;
830;SDS011;397;50.564;7.272;2022-07-23T08:40:40;8.03;;;6.20;;
830;SDS011;397;50.564;7.272;2022-07-23T08:43:08;8.23;;;6.57;;
830;SDS011;397;50.564;7.272;2022-07-23T08:45:36;5.90;;;5.13;;
830;SDS011;397;50.564;7.272;2022-07-23T08:48:05;8.43;;;5.90;;
830;SDS011;397;50.564;7.272;2022-07-23T08:50:34;5.97;;;5.37;;
830;SDS011;397;50.564;7.272;2022-07-23T08:53:06;7.17;;;5.73;;
830;SDS011;397;50.564;7.272;2022-07-23T08:55:33;6.30;;;5.70;;
830;SDS011;397;50.564;7.272;2022-07-23T08:57:59;9.80;;;5.33;;
830;SDS011;397;50.564;7.272;2022-07-23T09:00:25;6.77;;;5.10;;
830;SDS011;397;50.564;7.272;2022-07-23T09:02:51;7.90;;;4.80;;
830;SDS011;397;50.564;7.272;2022-07-23T09:08:06;6.07;;;5.43;;
830;SDS011;397;50.564;7.272;2022-07-23T09:10:44;5.33;;;4.60;;
830;SDS011;397;50.564;7.272;2022-07-23T09:16:04;5.87;;;5.10;;
830;SDS011;397;50.564;7.272;2022-07-23T09:21:25;4.90;;;4.40;;
830;SDS011;397;50.564;7.272;2022-07-23T09:23:57;6.37;;;4.50;;
830;SDS011;397;50.564;7.272;2022-07-23T09:31:50;7.50;;;4.73;;
830;SDS011;397;50.564;7.272;2022-07-23T09:34:25;6.23;;;4.43;;
830;SDS011;397;50.564;7.272;2022-07-23T09:36:57;10.70;;;5.30;;
830;SDS011;397;50.564;7.272;2022-07-23T09:39:29;5.77;;;4.60;;
830;SDS011;397;50.564;7.272;2022-07-23T09:42:19;6.73;;;5.27;;
830;SDS011;397;50.564;7.272;2022-07-23T09:44:50;5.00;;;4.07;;
830;SDS011;397;50.564;7.272;2022-07-23T09:47:17;6.43;;;5.23;;
830;SDS011;397;50.564;7.272;2022-07-23T09:50:02;5.93;;;5.20;;
830;SDS011;397;50.564;7.272;2022-07-23T09:52:34;6.00;;;5.23;;
830;SDS011;397;50.564;7.272;2022-07-23T09:55:03;6.60;;;5.67;;
830;SDS011;397;50.564;7.272;2022-07-23T09:57:31;6.83;;;5.63;;
830;SDS011;397;50.564;7.272;2022-07-23T09:59:58;7.20;;;5.20;;
830;SDS011;397;50.564;7.272;2022-07-23T10:02:27;5.83;;;5.23;;
830;SDS011;397;50.564;7.272;2022-07-23T10:04:53;7.90;;;5.50;;
830;SDS011;397;50.564;7.272;2022-07-23T10:07:21;6.37;;;5.10;;
830;SDS011;397;50.564;7.272;2022-07-23T10:09:48;7.27;;;6.27;;
830;SDS011;397;50.564;7.272;2022-07-23T10:12:18;6.57;;;5.97;;
830;SDS011;397;50.564;7.272;2022-07-23T10:14:49;5.03;;;4.27;;
830;SDS011;397;50.564;7.272;2022-07-23T10:17:16;6.30;;;4.63;;
830;SDS011;397;50.564;7.272;2022-07-23T10:19:42;11.03;;;4.80;;
830;SDS011;397;50.564;7.272;2022-07-23T10:22:19;6.50;;;4.83;;
830;SDS011;397;50.564;7.272;2022-07-23T10:25:14;7.50;;;5.17;;
830;SDS011;397;50.564;7.272;2022-07-23T10:33:36;6.77;;;4.83;;
830;SDS011;397;50.564;7.272;2022-07-23T10:36:38;6.27;;;5.53;;
830;SDS011;397;50.564;7.272;2022-07-23T10:39:28;7.43;;;5.37;;
830;SDS011;397;50.564;7.272;2022-07-23T10:42:08;6.97;;;6.20;;
830;SDS011;397;50.564;7.272;2022-07-23T10:44:39;5.30;;;4.50;;
830;SDS011;397;50.564;7.272;2022-07-23T10:47:10;5.67;;;4.43;;
830;SDS011;397;50.564;7.272;2022-07-23T10:49:50;8.40;;;4.83;;
830;SDS011;397;50.564;7.272;2022-07-23T10:57:25;5.33;;;4.40;;
830;SDS011;397;50.564;7.272;2022-07-23T11:02:33;10.53;;;5.67;;
830;SDS011;397;50.564;7.272;2022-07-23T11:05:00;4.57;;;4.03;;
830;SDS011;397;50.564;7.272;2022-07-23T11:07:28;5.50;;;4.07;;
830;SDS011;397;50.564;7.272;2022-07-23T11:09:54;4.20;;;3.63;;
830;SDS011;397;50.564;7.272;2022-07-23T11:17:36;5.80;;;4.50;;
830;SDS011;397;50.564;7.272;2022-07-23T11:25:13;5.40;;;4.53;;
830;SDS011;397;50.564;7.272;2022-07-23T11:27:42;4.23;;;3.73;;
830;SDS011;397;50.564;7.272;2022-07-23T11:30:12;4.40;;;3.83;;
830;SDS011;397;50.564;7.272;2022-07-23T11:33:15;4.33;;;3.50;;
830;SDS011;397;50.564;7.272;2022-07-23T11:35:44;5.23;;;4.63;;
830;SDS011;397;50.564;7.272;2022-07-23T11:41:00;4.77;;;4.37;;
830;SDS011;397;50.564;7.272;2022-07-23T11:43:25;8.93;;;5.03;;
830;SDS011;397;50.564;7.272;2022-07-23T11:45:57;5.13;;;4.00;;
830;SDS011;397;50.564;7.272;2022-07-23T11:48:29;4.67;;;4.17;;
830;SDS011;397;50.564;7.272;2022-07-23T11:50:52;5.13;;;4.07;;
830;SDS011;397;50.564;7.272;2022-07-23T11:53:23;6.33;;;4.70;;
830;SDS011;397;50.564;7.272;2022-07-23T11:55:50;5.50;;;4.70;;
830;SDS011;397;50.564;7.272;2022-07-23T11:58:16;5.60;;;4.60;;
830;SDS011;397;50.564;7.272;2022-07-23T12:00:43;7.10;;;5.10;;
830;SDS011;397;50.564;7.272;2022-07-23T12:03:08;6.47;;;5.13;;
830;SDS011;397;50.564;7.272;2022-07-23T12:05:35;7.30;;;6.10;;
830;SDS011;397;50.564;7.272;2022-07-23T12:08:03;6.07;;;5.47;;
830;SDS011;397;50.564;7.272;2022-07-23T12:10:42;7.63;;;5.93;;
830;SDS011;397;50.564;7.272;2022-07-23T12:13:03;6.57;;;5.90;;
830;SDS011;397;50.564;7.272;2022-07-23T12:18:07;6.03;;;5.40;;
830;SDS011;397;50.564;7.272;2022-07-23T12:20:38;6.27;;;5.70;;
830;SDS011;397;50.564;7.272;2022-07-23T12:23:09;6.27;;;5.67;;
830;SDS011;397;50.564;7.272;2022-07-23T12:25:37;7.73;;;6.47;;
830;SDS011;397;50.564;7.272;2022-07-23T12:28:12;6.90;;;6.20;;
830;SDS011;397;50.564;7.272;2022-07-23T12:30:43;7.63;;;6.73;;
830;SDS011;397;50.564;7.272;2022-07-23T12:33:12;6.90;;;6.20;;
830;SDS011;397;50.564;7.272;2022-07-23T12:35:41;7.90;;;7.20;;
830;SDS011;397;50.564;7.272;2022-07-23T12:38:11;8.40;;;7.47;;
830;SDS011;397;50.564;7.272;2022-07-23T12:40:42;8.10;;;7.40;;
830;SDS011;397;50.564;7.272;2022-07-23T12:45:51;8.13;;;7.20;;
830;SDS011;397;50.564;7.272;2022-07-23T12:50:52;6.87;;;6.27;;
830;SDS011;397;50.564;7.272;2022-07-23T12:55:59;9.43;;;7.23;;
830;SDS011;397;50.564;7.272;2022-07-23T12:58:49;11.80;;;6.73;;
830;SDS011;397;50.564;7.272;2022-07-23T13:01:26;9.57;;;8.53;;
830;SDS011;397;50.564;7.272;2022-07-23T13:06:37;8.63;;;7.73;;
830;SDS011;397;50.564;7.272;2022-07-23T13:11:55;8.50;;;7.57;;
830;SDS011;397;50.564;7.272;2022-07-23T13:14:22;8.43;;;7.60;;
830;SDS011;397;50.564;7.272;2022-07-23T13:16:50;8.70;;;7.90;;
830;SDS011;397;50.564;7.272;2022-07-23T13:19:17;7.97;;;7.20;;
830;SDS011;397;50.564;7.272;2022-07-23T13:21:43;8.93;;;8.13;;
830;SDS011;397;50.564;7.272;2022-07-23T13:24:09;8.23;;;7.53;;
830;SDS011;397;50.564;7.272;2022-07-23T13:26:36;8.90;;;8.00;;
830;SDS011;397;50.564;7.272;2022-07-23T13:29:02;10.50;;;8.20;;
830;SDS011;397;50.564;7.272;2022-07-23T13:31:29;7.83;;;7.13;;
830;SDS011;397;50.564;7.272;2022-07-23T13:33:55;8.70;;;7.80;;
830;SDS011;397;50.564;7.272;2022-07-23T13:36:20;8.07;;;7.37;;
830;SDS011;397;50.564;7.272;2022-07-23T13:38:46;7.67;;;6.77;;
830;SDS011;397;50.564;7.272;2022-07-23T13:41:12;7.90;;;7.20;;
830;SDS011;397;50.564;7.272;2022-07-23T13:43:37;7.30;;;6.70;;
830;SDS011;397;50.564;7.272;2022-07-23T13:46:03;9.40;;;7.30;;
830;SDS011;397;50.564;7.272;2022-07-23T13:48:29;7.73;;;7.13;;
830;SDS011;397;50.564;7.272;2022-07-23T13:50:55;8.10;;;7.43;;
830;SDS011;397;50.564;7.272;2022-07-23T13:53:21;9.30;;;7.40;;
830;SDS011;397;50.564;7.272;2022-07-23T13:55:49;9.73;;;7.10;;
830;SDS011;397;50.564;7.272;2022-07-23T13:58:17;7.87;;;7.10;;
830;SDS011;397;50.564;7.272;2022-07-23T14:00:45;7.80;;;7.20;;
830;SDS011;397;50.564;7.272;2022-07-23T14:03:12;8.33;;;7.63;;
830;SDS011;397;50.564;7.272;2022-07-23T14:05:39;9.40;;;8.50;;
830;SDS011;397;50.564;7.272;2022-07-23T14:08:06;8.57;;;7.77;;
830;SDS011;397;50.564;7.272;2022-07-23T14:10:32;8.10;;;7.40;;
830;SDS011;397;50.564;7.272;2022-07-23T14:12:57;9.30;;;8.40;;
830;SDS011;397;50.564;7.272;2022-07-23T14:15:25;9.00;;;8.10;;
830;SDS011;397;50.564;7.272;2022-07-23T14:17:52;9.20;;;8.40;;
830;SDS011;397;50.564;7.272;2022-07-23T14:20:19;9.30;;;8.47;;
830;SDS011;397;50.564;7.272;2022-07-23T14:22:45;9.23;;;8.33;;
830;SDS011;397;50.564;7.272;2022-07-23T14:25:11;9.67;;;8.77;;
830;SDS011;397;50.564;7.272;2022-07-23T14:27:38;9.73;;;8.87;;
830;SDS011;397;50.564;7.272;2022-07-23T14:30:05;8.60;;;7.80;;
830;SDS011;397;50.564;7.272;2022-07-23T14:32:33;8.77;;;8.00;;
830;SDS011;397;50.564;7.272;2022-07-23T14:34:59;8.33;;;7.63;;
830;SDS011;397;50.564;7.272;2022-07-23T14:37:25;7.40;;;6.70;;
830;SDS011;397;50.564;7.272;2022-07-23T14:39:51;8.27;;;7.50;;
830;SDS011;397;50.564;7.272;2022-07-23T14:42:17;8.50;;;7.70;;
830;SDS011;397;50.564;7.272;2022-07-23T14:45:05;8.40;;;7.63;;
830;SDS011;397;50.564;7.272;2022-07-23T14:47:31;8.53;;;7.83;;
830;SDS011;397;50.564;7.272;2022-07-23T14:49:57;7.70;;;7.00;;
830;SDS011;397;50.564;7.272;2022-07-23T14:52:23;8.80;;;8.00;;
830;SDS011;397;50.564;7.272;2022-07-23T14:54:49;8.00;;;7.20;;
830;SDS011;397;50.564;7.272;2022-07-23T14:57:14;8.50;;;7.70;;
830;SDS011;397;50.564;7.272;2022-07-23T14:59:40;8.00;;;7.20;;
830;SDS011;397;50.564;7.272;2022-07-23T15:02:08;8.97;;;8.07;;
830;SDS011;397;50.564;7.272;2022-07-23T15:04:33;8.70;;;7.90;;
830;SDS011;397;50.564;7.272;2022-07-23T15:07:00;9.13;;;7.47;;
830;SDS011;397;50.564;7.272;2022-07-23T15:09:26;8.67;;;7.87;;
830;SDS011;397;50.564;7.272;2022-07-23T15:11:51;9.10;;;8.20;;
830;SDS011;397;50.564;7.272;2022-07-23T15:14:17;7.80;;;7.10;;
830;SDS011;397;50.564;7.272;2022-07-23T15:16:43;8.60;;;7.80;;
830;SDS011;397;50.564;7.272;2022-07-23T15:19:09;8.53;;;7.27;;
830;SDS011;397;50.564;7.272;2022-07-23T15:21:35;8.37;;;7.53;;
830;SDS011;397;50.564;7.272;2022-07-23T15:24:00;7.60;;;6.90;;
830;SDS011;397;50.564;7.272;2022-07-23T15:26:27;7.93;;;7.13;;
830;SDS011;397;50.564;7.272;2022-07-23T15:28:53;7.97;;;6.83;;
830;SDS011;397;50.564;7.272;2022-07-23T15:31:19;9.57;;;7.33;;
830;SDS011;397;50.564;7.272;2022-07-23T15:33:45;7.20;;;6.50;;
830;SDS011;397;50.564;7.272;2022-07-23T15:36:11;7.37;;;6.77;;
830;SDS011;397;50.564;7.272;2022-07-23T15:38:37;8.07;;;7.37;;
830;SDS011;397;50.564;7.272;2022-07-23T15:41:03;7.93;;;7.13;;
830;SDS011;397;50.564;7.272;2022-07-23T15:43:29;7.07;;;6.37;;
830;SDS011;397;50.564;7.272;2022-07-23T15:45:54;7.10;;;6.47;;
830;SDS011;397;50.564;7.272;2022-07-23T15:48:20;6.30;;;5.80;;
830;SDS011;397;50.564;7.272;2022-07-23T15:50:47;7.90;;;6.43;;
830;SDS011;397;50.564;7.272;2022-07-23T15:53:12;6.60;;;6.00;;
830;SDS011;397;50.564;7.272;2022-07-23T15:55:38;6.47;;;5.87;;
830;SDS011;397;50.564;7.272;2022-07-23T15:58:05;7.10;;;6.40;;
830;SDS011;397;50.564;7.272;2022-07-23T16:03:17;7.07;;;6.17;;
830;SDS011;397;50.564;7.272;2022-07-23T16:05:42;7.00;;;6.40;;
830;SDS011;397;50.564;7.272;2022-07-23T16:08:08;6.87;;;6.07;;
830;SDS011;397;50.564;7.272;2022-07-23T16:10:34;6.20;;;5.60;;
830;SDS011;397;50.564;7.272;2022-07-23T16:13:00;6.80;;;6.17;;
830;SDS011;397;50.564;7.272;2022-07-23T16:15:26;7.03;;;6.27;;
830;SDS011;397;50.564;7.272;2022-07-23T16:17:53;7.40;;;5.77;;
830;SDS011;397;50.564;7.272;2022-07-23T16:20:20;6.83;;;5.10;;
830;SDS011;397;50.564;7.272;2022-07-23T16:22:46;6.80;;;6.10;;
830;SDS011;397;50.564;7.272;2022-07-23T16:27:57;7.40;;;6.47;;
830;SDS011;397;50.564;7.272;2022-07-23T16:30:23;9.90;;;6.83;;
830;SDS011;397;50.564;7.272;2022-07-23T16:32:49;6.40;;;5.63;;
830;SDS011;397;50.564;7.272;2022-07-23T16:35:15;7.20;;;6.17;;
830;SDS011;397;50.564;7.272;2022-07-23T16:37:41;7.13;;;6.43;;